sensor_id;sensor_type;location;lat;lon;timestamp;P1;durP1;ratioP1;P2;durP2;ratioP2
37657;SDS011;23500;53.268;8.308;2023-07-29T00:01:23;4.38;;;3.97;;
37657;SDS011;23500;53.268;8.308;2023-07-29T00:03:49;4.20;;;3.80;;
37657;SDS011;23500;53.268;8.308;2023-07-29T00:06:14;3.92;;;3.60;;
37657;SDS011;23500;53.268;8.308;2023-07-29T00:08:40;3.78;;;3.47;;
37657;SDS011;23500;53.268;8.308;2023-07-29T00:11:06;3.63;;;3.33;;
37657;SDS011;23500;53.268;8.308;2023-07-29T00:13:31;3.63;;;3.33;;
37657;SDS011;23500;53.268;8.308;2023-07-29T00:15:57;4.20;;;3.35;;
37657;SDS011;23500;53.268;8.308;2023-07-29T00:18:23;3.80;;;3.40;;
37657;SDS011;23500;53.268;8.308;2023-07-29T00:20:48;4.43;;;3.80;;
37657;SDS011;23500;53.268;8.308;2023-07-29T00:23:16;3.83;;;3.40;;
37657;SDS011;23500;53.268;8.308;2023-07-29T00:25:44;3.88;;;3.45;;
37657;SDS011;23500;53.268;8.308;2023-07-29T00:28:10;3.83;;;3.45;;
37657;SDS011;23500;53.268;8.308;2023-07-29T00:30:36;4.35;;;3.70;;
37657;SDS011;23500;53.268;8.308;2023-07-29T00:33:02;3.58;;;3.28;;
37657;SDS011;23500;53.268;8.308;2023-07-29T00:35:27;3.88;;;3.47;;
37657;SDS011;23500;53.268;8.308;2023-07-29T00:37:53;3.78;;;3.47;;
37657;SDS011;23500;53.268;8.308;2023-07-29T00:40:19;3.67;;;3.38;;
37657;SDS011;23500;53.268;8.308;2023-07-29T00:42:46;4.20;;;3.80;;
37657;SDS011;23500;53.268;8.308;2023-07-29T00:45:12;3.75;;;3.45;;
37657;SDS011;23500;53.268;8.308;2023-07-29T00:47:38;4.38;;;3.63;;
37657;SDS011;23500;53.268;8.308;2023-07-29T00:50:04;4.13;;;3.72;;
37657;SDS011;23500;53.268;8.308;2023-07-29T00:52:31;3.63;;;3.33;;
37657;SDS011;23500;53.268;8.308;2023-07-29T00:54:57;3.70;;;3.40;;
37657;SDS011;23500;53.268;8.308;2023-07-29T00:57:23;3.60;;;3.30;;
37657;SDS011;23500;53.268;8.308;2023-07-29T00:59:50;3.78;;;3.47;;
37657;SDS011;23500;53.268;8.308;2023-07-29T01:02:16;3.85;;;3.53;;
37657;SDS011;23500;53.268;8.308;2023-07-29T01:04:42;3.85;;;3.45;;
37657;SDS011;23500;53.268;8.308;2023-07-29T01:07:17;3.42;;;3.13;;
37657;SDS011;23500;53.268;8.308;2023-07-29T01:12:58;3.72;;;3.42;;
37657;SDS011;23500;53.268;8.308;2023-07-29T01:15:43;3.55;;;3.25;;
37657;SDS011;23500;53.268;8.308;2023-07-29T01:18:22;3.85;;;3.47;;
37657;SDS011;23500;53.268;8.308;2023-07-29T01:20:54;4.10;;;3.58;;
37657;SDS011;23500;53.268;8.308;2023-07-29T01:23:27;3.67;;;3.33;;
37657;SDS011;23500;53.268;8.308;2023-07-29T01:25:55;3.53;;;3.22;;
37657;SDS011;23500;53.268;8.308;2023-07-29T01:28:20;3.58;;;3.28;;
37657;SDS011;23500;53.268;8.308;2023-07-29T01:30:46;4.05;;;3.60;;
37657;SDS011;23500;53.268;8.308;2023-07-29T01:33:17;4.00;;;3.25;;
37657;SDS011;23500;53.268;8.308;2023-07-29T01:36:03;3.78;;;3.47;;
37657;SDS011;23500;53.268;8.308;2023-07-29T01:38:35;4.38;;;3.70;;
37657;SDS011;23500;53.268;8.308;2023-07-29T01:41:02;3.50;;;3.17;;
37657;SDS011;23500;53.268;8.308;2023-07-29T01:43:29;3.65;;;3.35;;
37657;SDS011;23500;53.268;8.308;2023-07-29T01:45:56;3.60;;;3.30;;
37657;SDS011;23500;53.268;8.308;2023-07-29T01:48:22;3.67;;;3.35;;
37657;SDS011;23500;53.268;8.308;2023-07-29T01:50:47;3.70;;;3.40;;
37657;SDS011;23500;53.268;8.308;2023-07-29T01:53:13;3.78;;;3.47;;
37657;SDS011;23500;53.268;8.308;2023-07-29T01:55:40;3.83;;;3.42;;
37657;SDS011;23500;53.268;8.308;2023-07-29T01:58:06;3.60;;;3.30;;
37657;SDS011;23500;53.268;8.308;2023-07-29T02:00:32;3.70;;;3.00;;
37657;SDS011;23500;53.268;8.308;2023-07-29T02:02:57;3.70;;;3.40;;
37657;SDS011;23500;53.268;8.308;2023-07-29T02:05:23;4.13;;;3.72;;
37657;SDS011;23500;53.268;8.308;2023-07-29T02:07:49;4.10;;;3.70;;
37657;SDS011;23500;53.268;8.308;2023-07-29T02:10:15;3.97;;;3.47;;
37657;SDS011;23500;53.268;8.308;2023-07-29T02:12:40;3.53;;;3.22;;
37657;SDS011;23500;53.268;8.308;2023-07-29T02:15:06;3.80;;;3.40;;
37657;SDS011;23500;53.268;8.308;2023-07-29T02:17:32;3.33;;;3.03;;
37657;SDS011;23500;53.268;8.308;2023-07-29T02:19:58;3.40;;;3.10;;
37657;SDS011;23500;53.268;8.308;2023-07-29T02:22:24;3.95;;;3.40;;
37657;SDS011;23500;53.268;8.308;2023-07-29T02:24:50;3.97;;;3.58;;
37657;SDS011;23500;53.268;8.308;2023-07-29T02:27:15;3.55;;;3.25;;
37657;SDS011;23500;53.268;8.308;2023-07-29T02:29:41;3.67;;;3.00;;
37657;SDS011;23500;53.268;8.308;2023-07-29T02:32:07;3.72;;;3.42;;
37657;SDS011;23500;53.268;8.308;2023-07-29T02:34:33;3.58;;;3.20;;
37657;SDS011;23500;53.268;8.308;2023-07-29T02:36:59;3.47;;;3.15;;
37657;SDS011;23500;53.268;8.308;2023-07-29T02:39:25;3.55;;;3.25;;
37657;SDS011;23500;53.268;8.308;2023-07-29T02:41:50;3.97;;;3.40;;
37657;SDS011;23500;53.268;8.308;2023-07-29T02:44:16;3.35;;;3.05;;
37657;SDS011;23500;53.268;8.308;2023-07-29T02:46:42;3.88;;;3.58;;
37657;SDS011;23500;53.268;8.308;2023-07-29T02:49:08;3.63;;;3.30;;
37657;SDS011;23500;53.268;8.308;2023-07-29T02:51:34;3.67;;;3.38;;
37657;SDS011;23500;53.268;8.308;2023-07-29T02:53:59;3.03;;;2.83;;
37657;SDS011;23500;53.268;8.308;2023-07-29T02:56:25;3.50;;;3.17;;
37657;SDS011;23500;53.268;8.308;2023-07-29T02:58:51;3.85;;;3.55;;
37657;SDS011;23500;53.268;8.308;2023-07-29T03:01:17;3.67;;;3.38;;
37657;SDS011;23500;53.268;8.308;2023-07-29T03:03:43;3.45;;;3.15;;
37657;SDS011;23500;53.268;8.308;2023-07-29T03:06:10;3.33;;;3.03;;
37657;SDS011;23500;53.268;8.308;2023-07-29T03:08:38;3.45;;;3.15;;
37657;SDS011;23500;53.268;8.308;2023-07-29T03:11:08;3.25;;;2.97;;
37657;SDS011;23500;53.268;8.308;2023-07-29T03:13:35;3.63;;;3.33;;
37657;SDS011;23500;53.268;8.308;2023-07-29T03:16:10;3.63;;;3.33;;
37657;SDS011;23500;53.268;8.308;2023-07-29T03:18:40;3.53;;;3.22;;
37657;SDS011;23500;53.268;8.308;2023-07-29T03:21:06;3.10;;;2.83;;
37657;SDS011;23500;53.268;8.308;2023-07-29T03:23:33;3.30;;;3.00;;
37657;SDS011;23500;53.268;8.308;2023-07-29T03:26:00;3.40;;;3.10;;
37657;SDS011;23500;53.268;8.308;2023-07-29T03:28:33;3.47;;;3.10;;
37657;SDS011;23500;53.268;8.308;2023-07-29T03:30:58;3.50;;;3.17;;
37657;SDS011;23500;53.268;8.308;2023-07-29T03:33:24;3.20;;;2.90;;
37657;SDS011;23500;53.268;8.308;2023-07-29T03:35:51;3.35;;;3.05;;
37657;SDS011;23500;53.268;8.308;2023-07-29T03:38:17;3.42;;;3.13;;
37657;SDS011;23500;53.268;8.308;2023-07-29T03:40:43;3.35;;;3.05;;
37657;SDS011;23500;53.268;8.308;2023-07-29T03:43:09;3.22;;;3.00;;
37657;SDS011;23500;53.268;8.308;2023-07-29T03:45:35;3.42;;;3.13;;
37657;SDS011;23500;53.268;8.308;2023-07-29T03:48:01;3.40;;;3.10;;
37657;SDS011;23500;53.268;8.308;2023-07-29T03:50:28;3.53;;;3.22;;
37657;SDS011;23500;53.268;8.308;2023-07-29T03:52:54;2.90;;;2.70;;
37657;SDS011;23500;53.268;8.308;2023-07-29T03:55:20;3.30;;;3.00;;
37657;SDS011;23500;53.268;8.308;2023-07-29T03:57:46;3.22;;;2.92;;
37657;SDS011;23500;53.268;8.308;2023-07-29T04:00:12;3.33;;;3.03;;
37657;SDS011;23500;53.268;8.308;2023-07-29T04:02:38;3.25;;;2.95;;
37657;SDS011;23500;53.268;8.308;2023-07-29T04:05:04;3.03;;;2.83;;
37657;SDS011;23500;53.268;8.308;2023-07-29T04:07:33;3.38;;;2.83;;
37657;SDS011;23500;53.268;8.308;2023-07-29T04:10:02;3.30;;;3.00;;
37657;SDS011;23500;53.268;8.308;2023-07-29T04:12:29;3.10;;;2.85;;
37657;SDS011;23500;53.268;8.308;2023-07-29T04:14:55;3.28;;;2.97;;
37657;SDS011;23500;53.268;8.308;2023-07-29T04:17:21;3.25;;;2.95;;
37657;SDS011;23500;53.268;8.308;2023-07-29T04:19:46;3.00;;;2.78;;
37657;SDS011;23500;53.268;8.308;2023-07-29T04:22:12;2.90;;;2.70;;
37657;SDS011;23500;53.268;8.308;2023-07-29T04:24:39;2.97;;;2.78;;
37657;SDS011;23500;53.268;8.308;2023-07-29T04:27:04;3.47;;;3.17;;
37657;SDS011;23500;53.268;8.308;2023-07-29T04:29:30;3.63;;;2.92;;
37657;SDS011;23500;53.268;8.308;2023-07-29T04:31:56;2.95;;;2.75;;
37657;SDS011;23500;53.268;8.308;2023-07-29T04:34:22;3.28;;;3.00;;
37657;SDS011;23500;53.268;8.308;2023-07-29T04:36:47;3.13;;;2.67;;
37657;SDS011;23500;53.268;8.308;2023-07-29T04:39:13;2.80;;;2.60;;
37657;SDS011;23500;53.268;8.308;2023-07-29T04:41:39;2.97;;;2.78;;
37657;SDS011;23500;53.268;8.308;2023-07-29T04:44:06;3.17;;;2.88;;
37657;SDS011;23500;53.268;8.308;2023-07-29T04:46:32;3.60;;;3.30;;
37657;SDS011;23500;53.268;8.308;2023-07-29T04:48:57;2.95;;;2.75;;
37657;SDS011;23500;53.268;8.308;2023-07-29T04:51:23;2.85;;;2.65;;
37657;SDS011;23500;53.268;8.308;2023-07-29T04:53:49;3.20;;;2.90;;
37657;SDS011;23500;53.268;8.308;2023-07-29T04:56:15;2.88;;;2.67;;
37657;SDS011;23500;53.268;8.308;2023-07-29T04:58:41;3.22;;;2.80;;
37657;SDS011;23500;53.268;8.308;2023-07-29T05:01:06;2.92;;;2.63;;
37657;SDS011;23500;53.268;8.308;2023-07-29T05:03:32;2.55;;;2.35;;
37657;SDS011;23500;53.268;8.308;2023-07-29T05:05:58;3.03;;;2.78;;
37657;SDS011;23500;53.268;8.308;2023-07-29T05:08:25;3.25;;;2.95;;
37657;SDS011;23500;53.268;8.308;2023-07-29T05:10:51;3.00;;;2.80;;
37657;SDS011;23500;53.268;8.308;2023-07-29T05:13:17;2.92;;;2.72;;
37657;SDS011;23500;53.268;8.308;2023-07-29T05:15:44;3.72;;;3.10;;
37657;SDS011;23500;53.268;8.308;2023-07-29T05:18:10;3.30;;;2.90;;
37657;SDS011;23500;53.268;8.308;2023-07-29T05:20:36;3.60;;;3.20;;
37657;SDS011;23500;53.268;8.308;2023-07-29T05:23:02;2.97;;;2.78;;
37657;SDS011;23500;53.268;8.308;2023-07-29T05:25:28;3.60;;;3.00;;
37657;SDS011;23500;53.268;8.308;2023-07-29T05:27:54;4.18;;;3.78;;
37657;SDS011;23500;53.268;8.308;2023-07-29T05:30:19;3.30;;;2.90;;
37657;SDS011;23500;53.268;8.308;2023-07-29T05:32:45;3.30;;;3.00;;
37657;SDS011;23500;53.268;8.308;2023-07-29T05:35:11;3.28;;;2.47;;
37657;SDS011;23500;53.268;8.308;2023-07-29T05:37:40;3.85;;;3.55;;
37657;SDS011;23500;53.268;8.308;2023-07-29T05:40:06;3.75;;;3.45;;
37657;SDS011;23500;53.268;8.308;2023-07-29T05:42:33;3.28;;;2.97;;
37657;SDS011;23500;53.268;8.308;2023-07-29T05:44:59;3.40;;;3.10;;
37657;SDS011;23500;53.268;8.308;2023-07-29T05:47:25;3.03;;;2.83;;
37657;SDS011;23500;53.268;8.308;2023-07-29T05:49:51;3.30;;;3.00;;
37657;SDS011;23500;53.268;8.308;2023-07-29T05:52:17;3.20;;;2.90;;
37657;SDS011;23500;53.268;8.308;2023-07-29T05:54:43;3.50;;;2.97;;
37657;SDS011;23500;53.268;8.308;2023-07-29T05:57:09;3.10;;;2.90;;
37657;SDS011;23500;53.268;8.308;2023-07-29T05:59:36;3.33;;;3.03;;
37657;SDS011;23500;53.268;8.308;2023-07-29T06:02:01;3.20;;;2.97;;
37657;SDS011;23500;53.268;8.308;2023-07-29T06:04:27;3.08;;;2.85;;
37657;SDS011;23500;53.268;8.308;2023-07-29T06:06:53;3.40;;;3.10;;
37657;SDS011;23500;53.268;8.308;2023-07-29T06:09:20;3.05;;;2.72;;
37657;SDS011;23500;53.268;8.308;2023-07-29T06:11:47;2.88;;;2.67;;
37657;SDS011;23500;53.268;8.308;2023-07-29T06:14:12;3.22;;;2.92;;
37657;SDS011;23500;53.268;8.308;2023-07-29T06:16:38;2.75;;;2.55;;
37657;SDS011;23500;53.268;8.308;2023-07-29T06:19:04;2.67;;;2.47;;
37657;SDS011;23500;53.268;8.308;2023-07-29T06:21:30;2.88;;;2.60;;
37657;SDS011;23500;53.268;8.308;2023-07-29T06:23:56;3.13;;;2.83;;
37657;SDS011;23500;53.268;8.308;2023-07-29T06:26:21;2.60;;;2.40;;
37657;SDS011;23500;53.268;8.308;2023-07-29T06:28:47;2.50;;;2.30;;
37657;SDS011;23500;53.268;8.308;2023-07-29T06:31:13;2.60;;;2.40;;
37657;SDS011;23500;53.268;8.308;2023-07-29T06:33:39;2.80;;;2.60;;
37657;SDS011;23500;53.268;8.308;2023-07-29T06:36:04;2.95;;;2.72;;
37657;SDS011;23500;53.268;8.308;2023-07-29T06:38:30;3.25;;;2.90;;
37657;SDS011;23500;53.268;8.308;2023-07-29T06:40:56;2.72;;;2.53;;
37657;SDS011;23500;53.268;8.308;2023-07-29T06:43:22;2.72;;;2.53;;
37657;SDS011;23500;53.268;8.308;2023-07-29T06:45:47;2.88;;;2.67;;
37657;SDS011;23500;53.268;8.308;2023-07-29T06:48:13;2.95;;;2.75;;
37657;SDS011;23500;53.268;8.308;2023-07-29T06:50:39;2.50;;;2.30;;
37657;SDS011;23500;53.268;8.308;2023-07-29T06:53:05;2.70;;;2.50;;
37657;SDS011;23500;53.268;8.308;2023-07-29T06:55:31;2.90;;;2.70;;
37657;SDS011;23500;53.268;8.308;2023-07-29T06:57:57;2.80;;;2.60;;
37657;SDS011;23500;53.268;8.308;2023-07-29T07:00:22;2.95;;;2.67;;
37657;SDS011;23500;53.268;8.308;2023-07-29T07:02:48;2.78;;;2.58;;
37657;SDS011;23500;53.268;8.308;2023-07-29T07:05:14;2.88;;;2.67;;
37657;SDS011;23500;53.268;8.308;2023-07-29T07:07:40;2.78;;;2.58;;
37657;SDS011;23500;53.268;8.308;2023-07-29T07:10:05;2.53;;;2.33;;
37657;SDS011;23500;53.268;8.308;2023-07-29T07:12:31;2.65;;;2.45;;
37657;SDS011;23500;53.268;8.308;2023-07-29T07:14:57;3.17;;;2.50;;
37657;SDS011;23500;53.268;8.308;2023-07-29T07:17:23;3.13;;;2.92;;
37657;SDS011;23500;53.268;8.308;2023-07-29T07:19:48;3.05;;;2.80;;
37657;SDS011;23500;53.268;8.308;2023-07-29T07:22:15;2.65;;;2.45;;
37657;SDS011;23500;53.268;8.308;2023-07-29T07:24:41;2.65;;;2.45;;
37657;SDS011;23500;53.268;8.308;2023-07-29T07:27:07;2.70;;;2.50;;
37657;SDS011;23500;53.268;8.308;2023-07-29T07:29:32;3.00;;;2.80;;
37657;SDS011;23500;53.268;8.308;2023-07-29T07:31:58;3.03;;;2.35;;
37657;SDS011;23500;53.268;8.308;2023-07-29T07:34:24;3.90;;;2.50;;
37657;SDS011;23500;53.268;8.308;2023-07-29T07:36:50;3.10;;;2.88;;
37657;SDS011;23500;53.268;8.308;2023-07-29T07:39:16;2.78;;;2.58;;
37657;SDS011;23500;53.268;8.308;2023-07-29T07:41:42;2.95;;;2.63;;
37657;SDS011;23500;53.268;8.308;2023-07-29T07:44:07;2.80;;;2.40;;
37657;SDS011;23500;53.268;8.308;2023-07-29T07:46:34;3.95;;;2.67;;
37657;SDS011;23500;53.268;8.308;2023-07-29T07:48:59;2.55;;;2.30;;
37657;SDS011;23500;53.268;8.308;2023-07-29T07:51:25;3.10;;;2.78;;
37657;SDS011;23500;53.268;8.308;2023-07-29T07:53:51;3.00;;;2.60;;
37657;SDS011;23500;53.268;8.308;2023-07-29T07:56:16;3.50;;;2.75;;
37657;SDS011;23500;53.268;8.308;2023-07-29T07:58:42;2.80;;;2.60;;
37657;SDS011;23500;53.268;8.308;2023-07-29T08:01:08;2.63;;;2.42;;
37657;SDS011;23500;53.268;8.308;2023-07-29T08:03:34;2.72;;;2.38;;
37657;SDS011;23500;53.268;8.308;2023-07-29T08:06:01;2.80;;;2.53;;
37657;SDS011;23500;53.268;8.308;2023-07-29T08:08:27;2.90;;;2.70;;
37657;SDS011;23500;53.268;8.308;2023-07-29T08:10:53;3.00;;;2.70;;
37657;SDS011;23500;53.268;8.308;2023-07-29T08:13:21;4.25;;;2.67;;
37657;SDS011;23500;53.268;8.308;2023-07-29T08:15:48;3.05;;;2.75;;
37657;SDS011;23500;53.268;8.308;2023-07-29T08:18:14;3.33;;;2.92;;
37657;SDS011;23500;53.268;8.308;2023-07-29T08:20:40;2.83;;;2.30;;
37657;SDS011;23500;53.268;8.308;2023-07-29T08:23:06;2.63;;;2.42;;
37657;SDS011;23500;53.268;8.308;2023-07-29T08:25:32;2.97;;;2.67;;
37657;SDS011;23500;53.268;8.308;2023-07-29T08:27:58;3.42;;;2.50;;
37657;SDS011;23500;53.268;8.308;2023-07-29T08:30:23;3.05;;;2.53;;
37657;SDS011;23500;53.268;8.308;2023-07-29T08:32:50;3.30;;;3.00;;
37657;SDS011;23500;53.268;8.308;2023-07-29T08:35:15;2.78;;;2.58;;
37657;SDS011;23500;53.268;8.308;2023-07-29T08:37:41;4.72;;;2.67;;
37657;SDS011;23500;53.268;8.308;2023-07-29T08:40:07;3.53;;;2.60;;
37657;SDS011;23500;53.268;8.308;2023-07-29T08:42:33;3.15;;;2.35;;
37657;SDS011;23500;53.268;8.308;2023-07-29T08:45:01;2.75;;;2.47;;
37657;SDS011;23500;53.268;8.308;2023-07-29T08:47:32;2.88;;;2.67;;
37657;SDS011;23500;53.268;8.308;2023-07-29T08:49:58;3.90;;;2.97;;
37657;SDS011;23500;53.268;8.308;2023-07-29T08:52:26;3.22;;;2.50;;
37657;SDS011;23500;53.268;8.308;2023-07-29T08:54:54;2.50;;;2.30;;
37657;SDS011;23500;53.268;8.308;2023-07-29T08:57:20;3.80;;;2.40;;
37657;SDS011;23500;53.268;8.308;2023-07-29T08:59:47;3.83;;;2.78;;
37657;SDS011;23500;53.268;8.308;2023-07-29T09:02:13;4.65;;;2.60;;
37657;SDS011;23500;53.268;8.308;2023-07-29T09:04:38;3.60;;;2.67;;
37657;SDS011;23500;53.268;8.308;2023-07-29T09:07:04;3.33;;;2.50;;
37657;SDS011;23500;53.268;8.308;2023-07-29T09:09:31;3.47;;;2.75;;
37657;SDS011;23500;53.268;8.308;2023-07-29T09:11:57;3.08;;;2.70;;
37657;SDS011;23500;53.268;8.308;2023-07-29T09:14:23;3.00;;;2.40;;
37657;SDS011;23500;53.268;8.308;2023-07-29T09:16:49;4.65;;;2.95;;
37657;SDS011;23500;53.268;8.308;2023-07-29T09:19:15;2.72;;;2.45;;
37657;SDS011;23500;53.268;8.308;2023-07-29T09:21:40;3.15;;;2.45;;
37657;SDS011;23500;53.268;8.308;2023-07-29T09:24:07;3.45;;;2.50;;
37657;SDS011;23500;53.268;8.308;2023-07-29T09:26:33;4.65;;;3.00;;
37657;SDS011;23500;53.268;8.308;2023-07-29T09:28:59;3.85;;;2.50;;
37657;SDS011;23500;53.268;8.308;2023-07-29T09:31:26;4.60;;;2.72;;
37657;SDS011;23500;53.268;8.308;2023-07-29T09:34:02;3.00;;;2.70;;
37657;SDS011;23500;53.268;8.308;2023-07-29T09:36:32;5.63;;;2.45;;
37657;SDS011;23500;53.268;8.308;2023-07-29T09:38:59;4.38;;;2.40;;
37657;SDS011;23500;53.268;8.308;2023-07-29T09:41:26;3.55;;;2.40;;
37657;SDS011;23500;53.268;8.308;2023-07-29T09:43:56;3.30;;;2.55;;
37657;SDS011;23500;53.268;8.308;2023-07-29T09:46:23;2.83;;;2.20;;
37657;SDS011;23500;53.268;8.308;2023-07-29T09:48:52;3.22;;;2.47;;
37657;SDS011;23500;53.268;8.308;2023-07-29T09:51:21;3.22;;;2.50;;
37657;SDS011;23500;53.268;8.308;2023-07-29T09:53:48;2.92;;;2.30;;
37657;SDS011;23500;53.268;8.308;2023-07-29T09:56:15;5.03;;;2.80;;
37657;SDS011;23500;53.268;8.308;2023-07-29T09:58:42;5.45;;;2.60;;
37657;SDS011;23500;53.268;8.308;2023-07-29T10:01:10;3.75;;;2.28;;
37657;SDS011;23500;53.268;8.308;2023-07-29T10:03:36;4.25;;;2.30;;
37657;SDS011;23500;53.268;8.308;2023-07-29T10:06:03;4.30;;;2.67;;
37657;SDS011;23500;53.268;8.308;2023-07-29T10:08:30;4.32;;;2.78;;
37657;SDS011;23500;53.268;8.308;2023-07-29T10:10:59;4.70;;;2.55;;
37657;SDS011;23500;53.268;8.308;2023-07-29T10:13:24;3.13;;;2.47;;
37657;SDS011;23500;53.268;8.308;2023-07-29T10:15:51;4.20;;;2.33;;
37657;SDS011;23500;53.268;8.308;2023-07-29T10:18:18;4.15;;;2.42;;
37657;SDS011;23500;53.268;8.308;2023-07-29T10:20:47;4.22;;;2.50;;
37657;SDS011;23500;53.268;8.308;2023-07-29T10:23:15;3.03;;;2.22;;
37657;SDS011;23500;53.268;8.308;2023-07-29T10:25:43;3.13;;;2.38;;
37657;SDS011;23500;53.268;8.308;2023-07-29T10:28:15;3.10;;;2.35;;
37657;SDS011;23500;53.268;8.308;2023-07-29T10:30:43;2.63;;;2.42;;
37657;SDS011;23500;53.268;8.308;2023-07-29T10:33:09;2.80;;;2.10;;
37657;SDS011;23500;53.268;8.308;2023-07-29T10:35:35;4.57;;;2.60;;
37657;SDS011;23500;53.268;8.308;2023-07-29T10:38:02;3.45;;;2.50;;
37657;SDS011;23500;53.268;8.308;2023-07-29T10:43:25;4.18;;;2.50;;
37657;SDS011;23500;53.268;8.308;2023-07-29T10:45:52;4.05;;;2.30;;
37657;SDS011;23500;53.268;8.308;2023-07-29T10:53:58;2.78;;;2.45;;
37657;SDS011;23500;53.268;8.308;2023-07-29T10:56:26;2.83;;;2.50;;
37657;SDS011;23500;53.268;8.308;2023-07-29T10:58:57;4.40;;;2.45;;
37657;SDS011;23500;53.268;8.308;2023-07-29T11:01:42;3.78;;;2.75;;
37657;SDS011;23500;53.268;8.308;2023-07-29T11:09:43;3.70;;;2.80;;
37657;SDS011;23500;53.268;8.308;2023-07-29T11:15:03;4.43;;;3.13;;
37657;SDS011;23500;53.268;8.308;2023-07-29T11:17:37;4.72;;;2.97;;
37657;SDS011;23500;53.268;8.308;2023-07-29T11:20:28;6.18;;;2.95;;
37657;SDS011;23500;53.268;8.308;2023-07-29T11:22:55;3.05;;;2.72;;
37657;SDS011;23500;53.268;8.308;2023-07-29T11:25:24;3.20;;;2.50;;
37657;SDS011;23500;53.268;8.308;2023-07-29T11:27:52;4.07;;;2.67;;
37657;SDS011;23500;53.268;8.308;2023-07-29T11:30:18;3.95;;;2.95;;
37657;SDS011;23500;53.268;8.308;2023-07-29T11:32:45;4.70;;;3.10;;
37657;SDS011;23500;53.268;8.308;2023-07-29T11:35:12;4.78;;;3.33;;
37657;SDS011;23500;53.268;8.308;2023-07-29T11:37:43;6.25;;;3.30;;
37657;SDS011;23500;53.268;8.308;2023-07-29T11:40:13;6.85;;;3.53;;
37657;SDS011;23500;53.268;8.308;2023-07-29T11:42:42;5.47;;;3.65;;
37657;SDS011;23500;53.268;8.308;2023-07-29T11:45:09;12.80;;;5.63;;
37657;SDS011;23500;53.268;8.308;2023-07-29T11:47:36;16.58;;;6.95;;
37657;SDS011;23500;53.268;8.308;2023-07-29T11:50:05;19.75;;;7.13;;
37657;SDS011;23500;53.268;8.308;2023-07-29T11:52:34;13.80;;;6.18;;
37657;SDS011;23500;53.268;8.308;2023-07-29T11:55:01;13.00;;;6.53;;
37657;SDS011;23500;53.268;8.308;2023-07-29T11:57:29;15.02;;;6.28;;
37657;SDS011;23500;53.268;8.308;2023-07-29T11:59:55;17.38;;;6.63;;
37657;SDS011;23500;53.268;8.308;2023-07-29T12:02:21;13.77;;;6.70;;
37657;SDS011;23500;53.268;8.308;2023-07-29T12:04:48;16.10;;;7.20;;
37657;SDS011;23500;53.268;8.308;2023-07-29T12:07:16;16.92;;;7.72;;
37657;SDS011;23500;53.268;8.308;2023-07-29T12:09:42;14.50;;;7.15;;
37657;SDS011;23500;53.268;8.308;2023-07-29T12:12:08;17.27;;;7.25;;
37657;SDS011;23500;53.268;8.308;2023-07-29T12:14:34;15.73;;;7.03;;
37657;SDS011;23500;53.268;8.308;2023-07-29T12:17:01;17.00;;;7.35;;
37657;SDS011;23500;53.268;8.308;2023-07-29T12:19:31;17.48;;;7.63;;
37657;SDS011;23500;53.268;8.308;2023-07-29T12:21:59;16.02;;;7.63;;
37657;SDS011;23500;53.268;8.308;2023-07-29T12:24:25;18.58;;;7.28;;
37657;SDS011;23500;53.268;8.308;2023-07-29T12:26:51;17.13;;;7.40;;
37657;SDS011;23500;53.268;8.308;2023-07-29T12:29:17;16.88;;;7.53;;
37657;SDS011;23500;53.268;8.308;2023-07-29T12:31:45;14.90;;;6.50;;
37657;SDS011;23500;53.268;8.308;2023-07-29T12:34:20;18.85;;;7.25;;
37657;SDS011;23500;53.268;8.308;2023-07-29T12:36:47;16.50;;;7.68;;
37657;SDS011;23500;53.268;8.308;2023-07-29T12:39:20;20.70;;;7.70;;
37657;SDS011;23500;53.268;8.308;2023-07-29T12:41:49;17.17;;;7.63;;
37657;SDS011;23500;53.268;8.308;2023-07-29T12:44:16;15.38;;;7.75;;
37657;SDS011;23500;53.268;8.308;2023-07-29T12:46:42;16.25;;;7.20;;
37657;SDS011;23500;53.268;8.308;2023-07-29T12:49:08;15.30;;;7.50;;
37657;SDS011;23500;53.268;8.308;2023-07-29T12:51:34;13.68;;;6.93;;
37657;SDS011;23500;53.268;8.308;2023-07-29T12:54:00;13.02;;;7.13;;
37657;SDS011;23500;53.268;8.308;2023-07-29T12:56:27;14.70;;;6.97;;
37657;SDS011;23500;53.268;8.308;2023-07-29T12:58:54;16.40;;;6.80;;
37657;SDS011;23500;53.268;8.308;2023-07-29T13:01:20;15.75;;;7.00;;
37657;SDS011;23500;53.268;8.308;2023-07-29T13:03:46;14.48;;;7.63;;
37657;SDS011;23500;53.268;8.308;2023-07-29T13:06:12;16.70;;;7.38;;
37657;SDS011;23500;53.268;8.308;2023-07-29T13:08:38;17.70;;;7.72;;
37657;SDS011;23500;53.268;8.308;2023-07-29T13:11:04;15.15;;;7.15;;
37657;SDS011;23500;53.268;8.308;2023-07-29T13:13:30;15.25;;;7.60;;
37657;SDS011;23500;53.268;8.308;2023-07-29T13:15:57;13.80;;;7.45;;
37657;SDS011;23500;53.268;8.308;2023-07-29T13:18:22;15.23;;;6.97;;
37657;SDS011;23500;53.268;8.308;2023-07-29T13:20:48;15.15;;;7.15;;
37657;SDS011;23500;53.268;8.308;2023-07-29T13:23:14;11.63;;;6.63;;
37657;SDS011;23500;53.268;8.308;2023-07-29T13:25:40;15.45;;;7.22;;
37657;SDS011;23500;53.268;8.308;2023-07-29T13:28:06;14.20;;;6.85;;
37657;SDS011;23500;53.268;8.308;2023-07-29T13:30:33;15.32;;;6.88;;
37657;SDS011;23500;53.268;8.308;2023-07-29T13:32:58;15.98;;;7.07;;
37657;SDS011;23500;53.268;8.308;2023-07-29T13:35:24;12.85;;;7.20;;
37657;SDS011;23500;53.268;8.308;2023-07-29T13:37:50;14.27;;;6.85;;
37657;SDS011;23500;53.268;8.308;2023-07-29T13:40:16;15.40;;;6.75;;
37657;SDS011;23500;53.268;8.308;2023-07-29T13:42:41;13.45;;;6.88;;
37657;SDS011;23500;53.268;8.308;2023-07-29T13:45:07;13.25;;;6.95;;
37657;SDS011;23500;53.268;8.308;2023-07-29T13:47:33;12.15;;;6.15;;
37657;SDS011;23500;53.268;8.308;2023-07-29T13:49:59;14.95;;;6.82;;
37657;SDS011;23500;53.268;8.308;2023-07-29T13:52:25;12.77;;;6.57;;
37657;SDS011;23500;53.268;8.308;2023-07-29T13:54:51;12.82;;;6.60;;
37657;SDS011;23500;53.268;8.308;2023-07-29T13:57:17;12.70;;;6.85;;
37657;SDS011;23500;53.268;8.308;2023-07-29T13:59:42;13.70;;;6.63;;
37657;SDS011;23500;53.268;8.308;2023-07-29T14:02:08;11.40;;;6.28;;
37657;SDS011;23500;53.268;8.308;2023-07-29T14:04:34;11.38;;;6.38;;
37657;SDS011;23500;53.268;8.308;2023-07-29T14:06:59;12.65;;;6.93;;
37657;SDS011;23500;53.268;8.308;2023-07-29T14:09:26;12.13;;;6.50;;
37657;SDS011;23500;53.268;8.308;2023-07-29T14:11:53;12.38;;;6.60;;
37657;SDS011;23500;53.268;8.308;2023-07-29T14:14:19;10.20;;;6.00;;
37657;SDS011;23500;53.268;8.308;2023-07-29T14:16:45;11.48;;;6.80;;
37657;SDS011;23500;53.268;8.308;2023-07-29T14:19:11;12.63;;;6.50;;
37657;SDS011;23500;53.268;8.308;2023-07-29T14:21:37;11.77;;;6.35;;
37657;SDS011;23500;53.268;8.308;2023-07-29T14:24:03;12.68;;;6.75;;
37657;SDS011;23500;53.268;8.308;2023-07-29T14:26:29;10.63;;;6.25;;
37657;SDS011;23500;53.268;8.308;2023-07-29T14:28:55;10.02;;;6.15;;
37657;SDS011;23500;53.268;8.308;2023-07-29T14:31:20;13.63;;;6.30;;
37657;SDS011;23500;53.268;8.308;2023-07-29T14:33:47;10.98;;;6.10;;
37657;SDS011;23500;53.268;8.308;2023-07-29T14:36:14;11.70;;;5.80;;
37657;SDS011;23500;53.268;8.308;2023-07-29T14:38:41;10.73;;;6.28;;
37657;SDS011;23500;53.268;8.308;2023-07-29T14:41:07;10.30;;;6.05;;
37657;SDS011;23500;53.268;8.308;2023-07-29T14:43:33;9.07;;;5.60;;
37657;SDS011;23500;53.268;8.308;2023-07-29T14:46:00;11.38;;;6.55;;
37657;SDS011;23500;53.268;8.308;2023-07-29T14:48:25;13.32;;;6.13;;
37657;SDS011;23500;53.268;8.308;2023-07-29T14:50:51;11.15;;;6.10;;
37657;SDS011;23500;53.268;8.308;2023-07-29T14:53:17;9.98;;;5.35;;
37657;SDS011;23500;53.268;8.308;2023-07-29T14:55:43;12.60;;;5.97;;
37657;SDS011;23500;53.268;8.308;2023-07-29T14:58:08;10.98;;;5.68;;
37657;SDS011;23500;53.268;8.308;2023-07-29T15:00:34;8.80;;;5.65;;
37657;SDS011;23500;53.268;8.308;2023-07-29T15:03:00;10.05;;;5.65;;